Tiempo atmosférico en la estación meteorológica de Muñotello, Ávila (1178 m.)



Fecha
DESCASC
Temp. máxima en grados centígrados (hora)
DESCASC
Temp. mínima en grados centígrados (hora)
DESCASC
Temp. media en grados centígrados
DESCASC
Racha de viento máxima en m/sg (hora)
DESCASC
Velocidad máxima media en intervalos de 10 minutos(hora)
DESCASC
Precipitaciones diarias en mm
DESCASC
Precipitaciones de 00:00 a 06:00 en mm
DESCASC
Precipitaciones de 06:00 a 12:00 en mm
DESCASC
Precipitaciones de 12:00 a 18:00 en mm
DESCASC
Precipitaciones de 18:00 a 24:00 en mm
DESCASC
19-04-2018 20.2 (15:30) 8.2 (07:00) 14.2 14.17 (10:50) 9.17 (10:50) 0 0 0 0 0
18-04-2018 21.6 (17:00) 7.1 (06:20) 14.4 12.5 (12:40) 7.5 (14:10) 0 0 0 0 0
17-04-2018 19.8 (17:00) 3.7 (05:30) 11.7 5.56 (18:10) 3.06 (18:10) 0 0 0 0 0
16-04-2018 13 (17:20) 3.4 (00:10) 8.2 11.11 (02:10) 7.78 (02:10) 0.2 0.2 0 0 0
15-04-2018 14.1 (16:30) 3.5 (00:00) 8.8 12.22 (23:40) 7.78 (23:40) 10.8 0 0 0 10.8
14-04-2018 13 (19:10) 5 (00:00) 9 7.5 (18:40) 5 (18:40) 0.2 0.2 0 0 0
13-04-2018 8.3 (15:50) 0.3 (00:00) 4.3 10.28 (18:50) 5.56 (16:20) 0.4 0 0.2 0 0.2
12-04-2018 8.9 (13:00) 2.4 (00:00) 5.6 11.67 (15:00) 7.78 (00:20) 1.2 0 0.8 0.4 0
11-04-2018 5.6 (18:10) -0.6 (-00:0) 2.5 14.72 (14:50) 9.44 (16:20) 5.2 0 4.4 0.8 0
10-04-2018 7.9 (16:40) 0.1 (00:00) 4 15.56 (07:50) 9.72 (07:50) 18 1.2 9.8 4.4 2.6
09-04-2018 5.5 (16:10) 0.2 (00:00) 2.9 13.33 (20:10) 8.61 (20:20) 3.2 1.2 0.8 0.4 0.8
08-04-2018 10.5 (18:40) 1.7 (00:00) 6.1 11.67 (12:30) 7.5 (12:30) 0.8 0.4 0.2 0.2 0
07-04-2018 9.3 (18:20) 3.8 (00:00) 6.6 10.83 (02:10) 7.22 (00:10) 3.2 0.6 1.2 0.6 0.8
06-04-2018 15 (13:40) 6.9 (00:00) 11 17.78 (16:40) 11.11 (17:30) 0 0 0 0 0
05-04-2018 17.1 (16:30) 0.2 (00:00) 8.7 13.61 (23:30) 8.33 (00:40) 0 0 0 0 0
04-04-2018 11 (14:50) 5 (00:00) 8 20.56 (03:10) 13.33 (00:30) 1.4 0 0.2 0.6 0.6
03-04-2018 11.4 (14:20) 4.9 (00:00) 8.1 18.33 (23:59) 12.78 (23:50) 4 0 0 1 3
02-04-2018 14.9 (13:40) 7.2 (00:00) 11 17.22 (12:10) 10.28 (11:10) 3 0 0 0 3
01-04-2018 14.3 (14:10) 0.9 (00:00) 7.6 13.61 (15:30) 8.61 (15:10) 0 0 0 0 0
31-03-2018 8.6 (17:50) 0.1 (00:00) 4.4 21.11 (01:40) 13.61 (01:40) 0.2 0 0.2 0 0
30-03-2018 6.6 (15:20) -0.3 (00:00) 3.1 21.67 (22:20) 11.67 (17:30) 7 3.2 0.8 0.8 2.2
29-03-2018 10.4 (16:30) 2.6 (00:00) 6.5 15 (23:40) 9.44 (12:00) 0 0 0 0 0
28-03-2018 16.9 (15:30) 5.6 (00:00) 11.2 13.61 (16:00) 8.61 (16:10) 0 0 0 0 0
27-03-2018 14.8 (16:40) 5.8 (00:00) 10.3 12.5 (01:50) 8.33 (00:10) 0 0 0 0 0
26-03-2018 9.2 (16:20) -0.1 (00:00) 4.5 11.67 (23:59) 7.78 (17:30) 0.2 0.2 0 0 0
25-03-2018 5.7 (17:40) -0.3 (00:00) 2.7 13.89 (00:10) 9.17 (00:10) 0.6 0 0.4 0 0.2
24-03-2018 5 (16:40) -0.6 (-00:0) 2.2 20.56 (15:30) 13.06 (13:00) 0.8 0.8 0 0 0
23-03-2018 9.5 (13:10) 2.6 (00:00) 6 26.94 (23:00) 13.61 (23:20) 8.4 0 1.6 2.6 4.2

Gráficas

Temp. máximas Temp. mínimas Temp. medias Precipitaciones Rachas de viento máximas Velocidades máximas media en intervalos de 10 minutos

Datos horarios

Fecha y hora oficial Temperatura (ºC) Velocidad del viento (km/h) Dirección del viento Racha (km/h) Dirección de racha Precipitación (mm) Presión (hPa) Tendencia (hPa) Humedad (%)
2018-04-21 23:00:00 10 7 Noroeste 17 Norte 0 -- -- 86
2018-04-21 22:00:00 11.1 4 Nordeste 13 Oeste 0 -- -- 80
2018-04-21 21:00:00 11.9 12 Oeste 19 Oeste 0 -- -- 78
2018-04-21 20:00:00 13.7 13 Oeste 23 Oeste 0 -- -- 69
2018-04-21 19:00:00 14.9 6 Noroeste 20 Sudeste 0 -- -- 62
2018-04-21 18:00:00 15.2 11 Este 28 Este 0 -- -- 60
2018-04-21 17:00:00 15.4 18 Este 41 Este 0 -- -- 53
2018-04-21 16:00:00 15 5 Noroeste 43 Sur 0 -- -- 55
2018-04-21 15:00:00 13.9 31 Sudeste 53 Sur 0 -- -- 55
2018-04-21 14:00:00 12.1 8 Este 17 Nordeste 0 -- -- 69
2018-04-21 13:00:00 11.6 9 Este 17 Nordeste 0 -- -- 70
2018-04-21 12:00:00 11.4 8 Norte 16 Norte 0 -- -- 74
2018-04-21 11:00:00 10.4 13 Noroeste 23 Noroeste 0 -- -- 73
2018-04-21 10:00:00 8.8 3 Oeste 15 Oeste 0 -- -- 83
2018-04-21 09:00:00 8.3 7 Norte 12 Norte 0 -- -- 85
2018-04-21 08:00:00 7.6 10 Oeste 18 Oeste 0 -- -- 86
2018-04-21 07:00:00 7.8 8 Oeste 12 Oeste 0 -- -- 86
2018-04-21 06:00:00 8.3 9 Oeste 12 Oeste 0 -- -- 86
2018-04-21 05:00:00 9.5 4 Nordeste 35 Sur 0 -- -- 79
2018-04-21 04:00:00 10.6 19 Sur 43 Sur 0 -- -- 74
2018-04-21 03:00:00 10.4 16 Sudeste 30 Sudeste 0 -- -- 74
2018-04-21 02:00:00 10.6 4 Norte 36 Sudeste 0 -- -- 76
2018-04-21 01:00:00 11.4 15 Este 40 Este 0 -- -- 70
2018-04-21 00:00:00 12 17 Este 41 Sudeste 0 -- -- 67
2018-04-20 23:00:00 12.4 25 Este 49 Sudeste 0 -- -- 62
2018-04-20 22:00:00 12.9 22 Sudeste 44 Este 0 -- -- 60
2018-04-20 21:00:00 13.7 16 Sudeste 30 Sudeste 0 -- -- 57
2018-04-20 20:00:00 14.8 19 Sudeste 33 Este 0 -- -- 54
2018-04-20 19:00:00 15.8 21 Sudeste 38 Este 0 -- -- 50
2018-04-20 18:00:00 16.5 19 Sudeste 45 Este 0 -- -- 49
2018-04-20 17:00:00 16 27 Sudeste 46 Sudeste 0 -- -- 52
2018-04-20 16:00:00 16.1 27 Este 49 Este 0 -- -- 53
2018-04-20 15:00:00 15.3 32 Este 48 Este 0 -- -- 52
2018-04-20 14:00:00 15.4 30 Sudeste 48 Sudeste 0 -- -- 54
2018-04-20 13:00:00 14.7 28 Sudeste 49 Sudeste 0 -- -- 56
2018-04-20 12:00:00 13.7 29 Este 49 Este 0 -- -- 58
2018-04-20 11:00:00 12.6 23 Sudeste 49 Este 0 -- -- 63
2018-04-20 10:00:00 11.4 30 Sudeste 52 Este 0 -- -- 66
2018-04-20 09:00:00 11.2 18 Sudeste 54 Sudeste 0 -- -- 66
2018-04-20 08:00:00 9.6 33 Este 52 Este 0 -- -- 71
2018-04-20 07:00:00 10.1 28 Sudeste 51 Sudeste 0 -- -- 65
2018-04-20 06:00:00 10 31 Sudeste 51 Sudeste 0 -- -- 66
2018-04-20 05:00:00 9.9 26 Sudeste 45 Sudeste 0 -- -- 72
2018-04-20 04:00:00 10.5 33 Sudeste 50 Sudeste 0 -- -- 72
2018-04-20 03:00:00 11 37 Sudeste 49 Sudeste 0 -- -- 71
2018-04-20 02:00:00 11.6 28 Sudeste 40 Sudeste 0 -- -- 68
2018-04-20 01:00:00 12.7 19 Sudeste 29 Este 0 -- -- 62
2018-04-20 00:00:00 13.1 16 Este 22 Sudeste 0 -- -- 59
2018-04-19 23:00:00 13.9 9 Este 31 Sudeste 0 -- -- 51
2018-04-19 22:00:00 14.6 15 Sudeste 31 Sur 0 -- -- 47
2018-04-19 21:00:00 15.5 17 Sudeste 34 Sudeste 0 -- -- 46
2018-04-19 20:00:00 17.1 19 Sudeste 35 Sudeste 0 -- -- 43
2018-04-19 19:00:00 18.6 19 Sudeste 33 Este 0 -- -- 41
2018-04-19 18:00:00 19.6 18 Sudeste 32 Sudeste 0 -- -- 36
2018-04-19 17:00:00 19.7 21 Sudeste 37 Sudeste 0 -- -- 36
2018-04-19 16:00:00 19.9 18 Sudeste 31 Este 0 -- -- 37
2018-04-19 15:00:00 19.6 16 Sudeste 40 Este 0 -- -- 37
2018-04-19 14:00:00 18.6 21 Sudeste 38 Sudeste 0 -- -- 40
2018-04-19 13:00:00 18.5 19 Sudeste 43 Este 0 -- -- 38
2018-04-19 12:00:00 17.8 11 Sudeste 50 Este 0 -- -- 41
2018-04-19 11:00:00 15.9 27 Sudeste 51 Sudeste 0 -- -- 41
2018-04-19 10:00:00 14.9 22 Este 37 Este 0 -- -- 42
2018-04-19 09:00:00 10.8 3 Norte 6 Norte 0 -- -- 64
2018-04-19 08:00:00 8.8 4 Noroeste 8 Noroeste 0 -- -- 71
2018-04-19 07:00:00 8.2 0 Calma 8 Nordeste 0 -- -- 74
2018-04-19 06:00:00 8.8 5 Este 10 Sudeste 0 -- -- 70
2018-04-19 05:00:00 11.4 4 Este 28 Este 0 -- -- 59
2018-04-19 04:00:00 12.6 8 Este 29 Este 0 -- -- 55
2018-04-19 03:00:00 11.8 8 Noroeste 25 Nordeste 0 -- -- 62
2018-04-19 02:00:00 14.8 15 Este 32 Este 0 -- -- 48
2018-04-19 01:00:00 15.1 10 Este 31 Este 0 -- -- 48
2018-04-19 00:00:00 15.3 18 Sudeste 28 Sudeste 0 -- -- 52
2018-04-18 23:00:00 15.3 21 Sudeste 31 Sur 0 -- -- 55
2018-04-18 22:00:00 15.7 13 Sur 33 Sur 0 -- -- 51
2018-04-18 21:00:00 16.6 16 Sur 30 Sur 0 -- -- 50
2018-04-18 20:00:00 18.6 20 Sur 32 Sur 0 -- -- 44
2018-04-18 19:00:00 19.3 15 Sudeste 25 Sudeste 0 -- -- 42
2018-04-18 18:00:00 21.3 12 Sur 30 Sudeste 0 -- -- 39
2018-04-18 17:00:00 21.6 15 Sudeste 33 Sudeste 0 -- -- 39
2018-04-18 16:00:00 21.1 21 Sudeste 35 Sur 0 -- -- 36
2018-04-18 15:00:00 20.8 20 Sudeste 44 Sudeste 0 -- -- 37
2018-04-18 14:00:00 20 24 Sudeste 40 Sur 0 -- -- 42
2018-04-18 13:00:00 19.2 24 Sudeste 45 Sudeste 0 -- -- 42
2018-04-18 12:00:00 18.7 14 Sudeste 37 Sur 0 -- -- 42
2018-04-18 11:00:00 17.1 7 Noroeste 22 Este 0 -- -- 45
2018-04-18 10:00:00 12.8 5 Norte 11 Nordeste 0 -- -- 62
2018-04-18 09:00:00 10.3 4 Noroeste 8 Este 0 -- -- 71
2018-04-18 08:00:00 8.2 3 Sudeste 15 Oeste 0 -- -- 73
2018-04-18 07:00:00 7.1 4 Este 14 Oeste 0 -- -- 78
2018-04-18 06:00:00 7.7 3 Sur 15 Noroeste 0 -- -- 76
2018-04-18 05:00:00 8.3 2 Sur 12 Sur 0 -- -- 74
2018-04-18 04:00:00 8.3 4 Sur 10 Sur 0 -- -- 76
2018-04-18 03:00:00 9 5 Oeste 8 Oeste 0 -- -- 75
2018-04-18 02:00:00 10.2 2 Sudoeste 7 Sur 0 -- -- 71
2018-04-18 01:00:00 10.5 0 Calma 5 Sur 0 -- -- 73
2018-04-18 00:00:00 11.2 0 Calma 3 Noroeste 0 -- -- 68
2018-04-17 23:00:00 12.5 0 Calma 13 Sur 0 -- -- 62
2018-04-17 22:00:00 13.7 9 Sur 13 Sur 0 -- -- 60
2018-04-17 21:00:00 15.9 2 Sudeste 12 Norte 0 -- -- 55
2018-04-17 20:00:00 17.6 10 Norte 17 Nordeste 0 -- -- 50
2018-04-17 19:00:00 18.9 10 Nordeste 20 Norte 0 -- -- 44
2018-04-17 18:00:00 19.4 8 Norte 16 Norte 0 -- -- 46
2018-04-17 17:00:00 19.8 6 Este 17 Este 0 -- -- 42
2018-04-17 16:00:00 19 9 Este 17 Este 0 -- -- 43
2018-04-17 15:00:00 17.8 4 Norte 13 Nordeste 0 -- -- 44
2018-04-17 14:00:00 16.8 6 Este 12 Nordeste 0 -- -- 39
2018-04-17 13:00:00 15.2 7 Nordeste 12 Este 0 -- -- 35
2018-04-17 12:00:00 13.4 4 Nordeste 9 Este 0 -- -- 49
2018-04-17 11:00:00 10.8 3 Norte 6 Nordeste 0 -- -- 61
2018-04-17 10:00:00 9.2 0 Calma 3 Nordeste 0 -- -- 64
2018-04-17 09:00:00 6.7 0 Calma 5 Sur 0 -- -- 65
2018-04-17 08:00:00 4.1 3 Sudoeste 10 Sur 0 -- -- 69
2018-04-17 07:00:00 4 8 Sur 10 Sur 0 -- -- 67
2018-04-17 06:00:00 3.8 0 Calma 3 Oeste 0 -- -- 69
2018-04-17 05:00:00 3.9 2 Oeste 8 Sur 0 -- -- 71
2018-04-17 04:00:00 4.6 3 Sudoeste 10 Sur 0 -- -- 67
2018-04-17 03:00:00 5.5 3 Sur 13 Sur 0 -- -- 66
2018-04-17 02:00:00 5.9 4 Oeste 8 Oeste 0 -- -- 65
2018-04-17 01:00:00 6.1 3 Sudoeste 8 Sur 0 -- -- 58
2018-04-17 00:00:00 6.8 6 Sudoeste 11 Sur 0 -- -- 61
2018-04-16 23:00:00 7.7 6 Sur 11 Sur 0 -- -- 49
2018-04-16 22:00:00 8.5 4 Sur 9 Oeste 0 -- -- 50
2018-04-16 21:00:00 10 8 Sudoeste 24 Oeste 0 -- -- 52
2018-04-16 20:00:00 11.5 19 Noroeste 27 Oeste 0 -- -- 51
2018-04-16 19:00:00 12.4 17 Oeste 24 Oeste 0 -- -- 45
2018-04-16 18:00:00 13 14 Oeste 26 Oeste 0 -- -- 47
2018-04-16 17:00:00 12.4 15 Noroeste 29 Noroeste 0 -- -- 59
2018-04-16 16:00:00 12.1 14 Noroeste 25 Oeste 0 -- -- 64
2018-04-16 15:00:00 11.7 10 Oeste 17 Oeste 0 -- -- 47
2018-04-16 14:00:00 10.1 7 Norte 18 Oeste 0 -- -- 57
2018-04-16 13:00:00 8.8 6 Noroeste 22 Oeste 0 -- -- 65
2018-04-16 12:00:00 7.3 11 Oeste 31 Oeste 0 -- -- 73
2018-04-16 11:00:00 5.9 18 Oeste 33 Oeste 0 -- -- 73
2018-04-16 10:00:00 4.4 22 Oeste 38 Oeste 0 -- -- 74
2018-04-16 09:00:00 3.6 21 Oeste 33 Oeste 0 -- -- 85
2018-04-16 08:00:00 3.4 22 Oeste 34 Oeste 0 -- -- 86
2018-04-16 07:00:00 3.5 21 Oeste 34 Oeste 0 -- -- 88
2018-04-16 06:00:00 3.7 21 Oeste 34 Oeste 0 -- -- 90
2018-04-16 05:00:00 3.8 17 Oeste 31 Oeste 0 -- -- 89
2018-04-16 04:00:00 4.2 14 Oeste 34 Oeste 0.2 -- -- 90
2018-04-16 03:00:00 4.4 20 Oeste 40 Sudoeste 0 -- -- 89
2018-04-16 02:00:00 4.7 24 Oeste 40 Sudoeste 0 -- -- 82
2018-04-16 01:00:00 3.7 7 Oeste 25 Oeste 0 -- -- 92
2018-04-16 00:00:00 3.5 19 Oeste 44 Oeste 4.4 -- -- 89
2018-04-15 23:00:00 5.8 17 Oeste 40 Noroeste 0.8 -- -- 88
2018-04-15 22:00:00 6.7 25 Oeste 38 Oeste 4.8 -- -- 88
2018-04-15 21:00:00 9.6 5 Oeste 22 Sudoeste 0.6 -- -- 87
2018-04-15 20:00:00 10.6 5 Sudoeste 27 Oeste 0.2 -- -- 81
2018-04-15 19:00:00 12 13 Noroeste 36 Oeste 0 -- -- 77
2018-04-15 18:00:00 13.7 15 Oeste 35 Sudoeste 0 -- -- 66
2018-04-15 17:00:00 13.5 24 Oeste 41 Oeste 0 -- -- 72
2018-04-15 16:00:00 13.3 14 Noroeste 33 Oeste 0 -- -- 71
2018-04-15 15:00:00 12.6 14 Oeste 27 Oeste 0 -- -- 73
2018-04-15 14:00:00 11.9 18 Oeste 34 Sudoeste 0 -- -- 77
2018-04-15 13:00:00 12.3 24 Oeste 37 Oeste 0 -- -- 72
2018-04-15 12:00:00 12.1 19 Oeste 36 Oeste 0 -- -- 76
2018-04-15 11:00:00 10.6 14 Noroeste 35 Oeste 0 -- -- 82
2018-04-15 10:00:00 11.3 15 Oeste 29 Sudoeste 0 -- -- 74
2018-04-15 09:00:00 8.9 14 Oeste 28 Oeste 0 -- -- 81
2018-04-15 08:00:00 7.1 5 Oeste 14 Oeste 0 -- -- 81
2018-04-15 07:00:00 7 5 Sudeste 10 Nordeste 0 -- -- 81
2018-04-15 06:00:00 6.9 0 Calma 6 Este 0 -- -- 82
2018-04-15 05:00:00 7.1 2 Este 9 Nordeste 0 -- -- 78
2018-04-15 04:00:00 6.8 2 Este 6 Sur 0 -- -- 79
2018-04-15 03:00:00 6.6 2 Sudeste 10 Sur 0 -- -- 80
2018-04-15 02:00:00 7 0 Calma 6 Sudoeste 0 -- -- 76
2018-04-15 01:00:00 6.7 6 Oeste 26 Sudoeste 0 -- -- 79
2018-04-15 00:00:00 8.9 15 Sudoeste 24 Sudoeste 0 -- -- 67
2018-04-14 23:00:00 7.6 6 Oeste 16 Sudoeste 0 -- -- 77
2018-04-14 22:00:00 8.7 10 Oeste 24 Oeste 0 -- -- 72
2018-04-14 21:00:00 10.1 14 Oeste 21 Oeste 0 -- -- 67
2018-04-14 20:00:00 11.4 13 Oeste 26 Oeste 0 -- -- 63
2018-04-14 19:00:00 12.7 6 Oeste 27 Oeste 0 -- -- 58
2018-04-14 18:00:00 12 15 Oeste 22 Oeste 0 -- -- 57
2018-04-14 17:00:00 12 15 Noroeste 19 Noroeste 0 -- -- 57
2018-04-14 16:00:00 11.5 5 Norte 18 Noroeste 0 -- -- 55
2018-04-14 15:00:00 10.8 4 Noroeste 12 Noroeste 0 -- -- 60
2018-04-14 14:00:00 10.4 3 Sudeste 10 Norte 0 -- -- 60
2018-04-14 13:00:00 9.3 3 Sudeste 9 Este 0 -- -- 65
2018-04-14 12:00:00 8.5 2 Nordeste 8 Nordeste 0 -- -- 69
2018-04-14 11:00:00 7.8 3 Este 9 Oeste 0 -- -- 73
2018-04-14 10:00:00 7 6 Noroeste 12 Oeste 0 -- -- 83
2018-04-14 09:00:00 5.6 4 Noroeste 12 Noroeste 0 -- -- 88
2018-04-14 08:00:00 5.2 8 Noroeste 14 Noroeste 0 -- -- 89
2018-04-14 07:00:00 5.2 0 Calma 4 Sudoeste 0 -- -- 92
2018-04-14 06:00:00 5 0 Calma 3 Norte 0 -- -- 93
2018-04-14 05:00:00 5.2 0 Calma 4 Sudoeste 0 -- -- 91
2018-04-14 04:00:00 5.1 0 Calma 4 Oeste 0 -- -- 93
2018-04-14 03:00:00 5.3 0 Calma 4 Norte 0 -- -- 92
2018-04-14 02:00:00 5.3 4 Sur 12 Noroeste 0.2 -- -- 91
2018-04-14 01:00:00 5.4 2 Este 13 Oeste 0 -- -- 89
2018-04-14 00:00:00 5.7 12 Oeste 23 Noroeste 0.2 -- -- 84
2018-04-13 23:00:00 6.1 6 Noroeste 15 Noroeste 0 -- -- 84
2018-04-13 22:00:00 6.4 0 Calma 11 Oeste 0 -- -- 81
2018-04-13 21:00:00 7 8 Oeste 16 Oeste 0 -- -- 73
2018-04-13 20:00:00 7.4 9 Oeste 19 Oeste 0 -- -- 74
2018-04-13 19:00:00 8 15 Oeste 37 Oeste 0 -- -- 74
2018-04-13 18:00:00 7.7 8 Noroeste 22 Oeste 0 -- -- 74
2018-04-13 17:00:00 7.1 13 Noroeste 28 Oeste 0 -- -- 73
2018-04-13 16:00:00 7.8 14 Noroeste 22 Oeste 0 -- -- 71
2018-04-13 15:00:00 7.5 16 Noroeste 24 Noroeste 0 -- -- 76
2018-04-13 14:00:00 7 15 Noroeste 22 Noroeste 0 -- -- 75
2018-04-13 13:00:00 6.8 14 Noroeste 21 Noroeste 0 -- -- 65
2018-04-13 12:00:00 7.1 12 Noroeste 24 Oeste 0 -- -- 64
2018-04-13 11:00:00 6.6 5 Nordeste 12 Oeste 0 -- -- 69
2018-04-13 10:00:00 5.1 0 Calma 5 Oeste 0.2 -- -- 73
2018-04-13 09:00:00 1.1 3 Oeste 6 Sur 0 -- -- 86
2018-04-13 08:00:00 0.4 2 Sudeste 7 Sur 0 -- -- 87
2018-04-13 07:00:00 0.5 3 Sur 11 Sur 0 -- -- 85
2018-04-13 06:00:00 1.2 4 Sudoeste 14 Oeste 0 -- -- 86
2018-04-13 05:00:00 1.6 5 Sur 29 Sudoeste 0 -- -- 85
2018-04-13 04:00:00 2.5 9 Sudoeste 17 Oeste 0 -- -- 86
2018-04-13 03:00:00 2.7 3 Norte 8 Nordeste 0 -- -- 90
2018-04-13 02:00:00 2.9 6 Sudoeste 12 Sudoeste 0 -- -- 91
2018-04-13 01:00:00 3 5 Oeste 20 Oeste 0 -- -- 90
2018-04-13 00:00:00 3.6 13 Oeste 23 Noroeste 0 -- -- 86
2018-04-12 23:00:00 4 7 Este 29 Sur 0 -- -- 79
2018-04-12 22:00:00 4.2 8 Este 27 Nordeste 0 -- -- 77
2018-04-12 21:00:00 4 12 Nordeste 27 Nordeste 0 -- -- 79
2018-04-12 20:00:00 4.1 10 Este 35 Este 0 -- -- 76
2018-04-12 19:00:00 4.5 22 Este 37 Este 0 -- -- 78
2018-04-12 18:00:00 4.6 13 Este 40 Sudeste 0.2 -- -- 77
2018-04-12 17:00:00 5.3 11 Sur 40 Sur 0.2 -- -- 81
2018-04-12 16:00:00 6.6 20 Sudeste 39 Sur 0 -- -- 73
2018-04-12 15:00:00 6.9 28 Sur 42 Sur 0 -- -- 72
2018-04-12 14:00:00 7.9 25 Sudeste 38 Sudeste 0 -- -- 69
2018-04-12 13:00:00 8.9 18 Sudeste 28 Sur 0 -- -- 64
2018-04-12 12:00:00 7.4 6 Norte 15 Norte 0 -- -- 65
2018-04-12 11:00:00 6.7 9 Nordeste 16 Este 0 -- -- 64
2018-04-12 10:00:00 6.1 5 Oeste 22 Sudeste 0 -- -- 73
2018-04-12 09:00:00 4 9 Oeste 18 Oeste 0 -- -- 80
2018-04-12 08:00:00 2.4 0 Calma 19 Noroeste 0 -- -- 93
2018-04-12 07:00:00 2.9 8 Oeste 19 Oeste 0.8 -- -- 90
2018-04-12 06:00:00 3.1 4 Oeste 24 Oeste 0 -- -- 90
2018-04-12 05:00:00 3.3 14 Oeste 24 Oeste 0 -- -- 87
2018-04-12 04:00:00 3.4 17 Oeste 31 Oeste 0 -- -- 88
2018-04-12 03:00:00 3.6 21 Oeste 35 Oeste 0 -- -- 87
2018-04-12 02:00:00 3.7 21 Oeste 35 Oeste 0 -- -- 87
2018-04-12 01:00:00 3.9 24 Oeste 42 Oeste 0 -- -- 86
2018-04-12 00:00:00 4 26 Oeste 45 Oeste 0 -- -- 85
2018-04-11 23:00:00 4.3 28 Oeste 44 Oeste 0 -- -- 81
2018-04-11 22:00:00 4.6 26 Oeste 41 Oeste 0 -- -- 81
2018-04-11 21:00:00 5.1 28 Oeste 52 Oeste 0 -- -- 77
2018-04-11 20:00:00 5.4 28 Oeste 50 Oeste 0 -- -- 75
2018-04-11 19:00:00 5.3 26 Oeste 48 Oeste 0 -- -- 73
2018-04-11 18:00:00 5.3 32 Oeste 49 Oeste 0 -- -- 70
2018-04-11 17:00:00 5.1 30 Oeste 50 Oeste 0 -- -- 68
2018-04-11 16:00:00 5.4 27 Oeste 48 Oeste 0 -- -- 68
2018-04-11 15:00:00 4.8 27 Oeste 53 Oeste 0 -- -- 73
2018-04-11 14:00:00 3.7 26 Oeste 40 Oeste 0 -- -- 79
2018-04-11 13:00:00 2.9 23 Oeste 46 Oeste 0.8 -- -- 79
2018-04-11 12:00:00 2.4 27 Oeste 41 Oeste 1.4 -- -- 78
2018-04-11 11:00:00 1.4 26 Oeste 44 Oeste 2.4 -- -- 78
2018-04-11 10:00:00 0.6 24 Oeste 37 Oeste 0.6 -- -- 82
2018-04-11 09:00:00 -0.2 15 Oeste 27 Noroeste 0 -- -- 87
2018-04-11 08:00:00 -0.5 18 Oeste 27 Oeste 0 -- -- 94
2018-04-11 07:00:00 -0.6 15 Noroeste 27 Noroeste 0 -- -- 96
2018-04-11 06:00:00 -0.6 12 Noroeste 22 Noroeste 0 -- -- 97
2018-04-11 05:00:00 -0.3 12 Oeste 21 Oeste 0 -- -- 96
2018-04-11 04:00:00 0 13 Oeste 24 Oeste 0 -- -- 95
2018-04-11 03:00:00 0.2 11 Oeste 25 Oeste 0 -- -- 95
2018-04-11 02:00:00 0.5 16 Oeste 26 Oeste 0 -- -- 91
2018-04-11 01:00:00 0.7 17 Oeste 28 Oeste 0 -- -- 89
2018-04-11 00:00:00 0.7 0 Calma -- -- 0 -- -- 89
2018-04-10 23:00:00 0.7 0 Calma -- -- 0.2 -- -- 85
2018-04-10 22:00:00 0.6 0 Calma -- -- 0.2 -- -- 87
2018-04-10 21:00:00 0.4 0 Calma -- -- 0.6 -- -- 90
2018-04-10 20:00:00 1 0 Calma -- -- 0.8 -- -- 83
2018-04-10 19:00:00 0.2 0 Calma 23 Oeste 0.8 -- -- 95
2018-04-10 18:00:00 0.8 10 Oeste 36 Oeste 1.2 -- -- 93
2018-04-10 17:00:00 5.8 23 Noroeste 35 Sudoeste 0 -- -- 80
2018-04-10 16:00:00 7.3 17 Sudoeste 32 Sudoeste 0 -- -- 67
2018-04-10 15:00:00 6.4 15 Sudoeste 33 Oeste 0 -- -- 69
2018-04-10 14:00:00 3.6 17 Oeste 27 Oeste 1.2 -- -- 92
2018-04-10 13:00:00 0.8 9 Oeste 27 Sudoeste 2 -- -- 94
2018-04-10 12:00:00 1 11 Oeste 30 Oeste 1 -- -- 94
2018-04-10 11:00:00 3 5 Noroeste 30 Sudoeste 1.8 -- -- 87
2018-04-10 10:00:00 3.8 16 Sudoeste 40 Sur 3 -- -- 81
2018-04-10 09:00:00 4.1 24 Sudoeste 51 Sudoeste 1.8 -- -- 79
2018-04-10 08:00:00 4.2 30 Sudoeste 56 Sur 2 -- -- 78
2018-04-10 07:00:00 4.5 19 Sudoeste 54 Sur 0.2 -- -- 75
2018-04-10 06:00:00 4.9 13 Sur 36 Sudoeste 0 -- -- 68
2018-04-10 05:00:00 3.9 22 Sudoeste 41 Sudoeste 0 -- -- 80
2018-04-10 04:00:00 3.7 28 Oeste 47 Oeste 0 -- -- 82
2018-04-10 03:00:00 3.5 16 Oeste 42 Oeste 0.4 -- -- 87
2018-04-10 02:00:00 3.6 19 Oeste 41 Sudoeste 0.4 -- -- 91
2018-04-10 01:00:00 2.3 14 Oeste 36 Oeste 0.4 -- -- 92
2018-04-10 00:00:00 3.8 17 Oeste 33 Sudoeste 0.6 -- -- 84
2018-04-09 23:00:00 3.7 15 Oeste 37 Sudoeste 0.2 -- -- 87
2018-04-09 22:00:00 4.2 28 Oeste 42 Sudoeste 0 -- -- 81
2018-04-09 21:00:00 3.8 30 Sudoeste 48 Sudoeste 0 -- -- 83
2018-04-09 20:00:00 4 23 Oeste 40 Oeste 0 -- -- 82
2018-04-09 19:00:00 4.3 21 Oeste 34 Oeste 0 -- -- 84
2018-04-09 18:00:00 4.9 22 Oeste 40 Oeste 0 -- -- 79
2018-04-09 17:00:00 3.4 21 Oeste 39 Oeste 0.2 -- -- 85
2018-04-09 16:00:00 4.5 27 Oeste 42 Oeste 0 -- -- 82
2018-04-09 15:00:00 3.9 27 Oeste 41 Oeste 0 -- -- 85
2018-04-09 14:00:00 3.2 21 Oeste 34 Oeste 0.2 -- -- 90
2018-04-09 13:00:00 2.3 18 Oeste 27 Oeste 0 -- -- 86
2018-04-09 12:00:00 2 18 Oeste 28 Oeste 0 -- -- 84
2018-04-09 11:00:00 2.6 11 Oeste 22 Oeste 0.4 -- -- 84
2018-04-09 10:00:00 1.1 3 Noroeste 7 Oeste 0.4 -- -- 92
2018-04-09 09:00:00 0.3 0 Calma 14 Oeste 0 -- -- 95
2018-04-09 08:00:00 0.5 6 Noroeste 13 Oeste 0 -- -- 93
2018-04-09 07:00:00 0.3 3 Noroeste 9 Noroeste 0 -- -- 92
2018-04-09 06:00:00 0.9 7 Sur 14 Sudoeste 0 -- -- 90
2018-04-09 05:00:00 0.8 6 Noroeste 10 Norte 0 -- -- 91
2018-04-09 04:00:00 1 9 Oeste 19 Oeste 0 -- -- 92
2018-04-09 03:00:00 1.9 6 Oeste 13 Noroeste 0 -- -- 88
2018-04-09 02:00:00 1.3 0 Calma 28 Oeste 0.4 -- -- 92
2018-04-09 01:00:00 1.7 18 Oeste 38 Oeste 0.8 -- -- 90
2018-04-09 00:00:00 4.6 15 Oeste 25 Oeste 0 -- -- 83
2018-04-08 23:00:00 5.6 15 Sudeste 40 Sudeste 0 -- -- 75
2018-04-08 22:00:00 6.6 5 Sudeste 20 Sudeste 0 -- -- 71
2018-04-08 21:00:00 7.2 10 Sur 39 Sudoeste 0 -- -- 67
2018-04-08 20:00:00 7.8 12 Sudoeste 38 Oeste 0 -- -- 69
2018-04-08 19:00:00 9.3 19 Oeste 31 Oeste 0 -- -- 62
2018-04-08 18:00:00 9.7 21 Oeste 35 Oeste 0 -- -- 65
2018-04-08 17:00:00 9.2 19 Oeste 32 Oeste 0 -- -- 65
2018-04-08 16:00:00 9.1 17 Oeste 37 Oeste 0 -- -- 68
2018-04-08 15:00:00 7.5 15 Oeste 36 Oeste 0.2 -- -- 77
2018-04-08 14:00:00 7.4 23 Oeste 34 Oeste 0 -- -- 75
2018-04-08 13:00:00 7.7 22 Oeste 42 Oeste 0 -- -- 71
2018-04-08 12:00:00 6 24 Oeste 39 Oeste 0 -- -- 78
2018-04-08 11:00:00 5.2 14 Oeste 27 Oeste 0 -- -- 80
2018-04-08 10:00:00 4.2 12 Oeste 19 Oeste 0 -- -- 86
2018-04-08 09:00:00 3.6 7 Oeste 22 Oeste 0 -- -- 92
2018-04-08 08:00:00 3.4 9 Oeste 15 Sudoeste 0.2 -- -- 90
2018-04-08 07:00:00 2.6 0 Calma 12 Oeste 0 -- -- 93
2018-04-08 06:00:00 3.2 8 Oeste 13 Oeste 0.2 -- -- 92
2018-04-08 05:00:00 2.4 2 Sudeste 7 Noroeste 0.2 -- -- 95
2018-04-08 04:00:00 2.4 4 Sudoeste 8 Sur 0 -- -- 94
2018-04-08 03:00:00 1.9 0 Calma 6 Sur 0 -- -- 92
2018-04-08 02:00:00 2.4 2 Sudoeste 8 Sur 0 -- -- 91
2018-04-08 01:00:00 3 3 Sudeste 9 Sur 0 -- -- 89
2018-04-08 00:00:00 3.8 3 Sur 9 Este 0 -- -- 91
2018-04-07 23:00:00 4.1 6 Nordeste 17 Oeste 0 -- -- 91
2018-04-07 22:00:00 4.5 6 Oeste 14 Oeste 0 -- -- 87
2018-04-07 21:00:00 4.7 6 Este 22 Nordeste 0.6 -- -- 87
2018-04-07 20:00:00 6.9 8 Sudoeste 25 Sudoeste 0.2 -- -- 75
2018-04-07 19:00:00 7.9 14 Noroeste 25 Oeste 0 -- -- 73
2018-04-07 18:00:00 8.8 5 Este 14 Nordeste 0 -- -- 68
2018-04-07 17:00:00 7.6 6 Este 19 Norte 0 -- -- 76
2018-04-07 16:00:00 7.5 6 Nordeste 15 Nordeste 0 -- -- 75
2018-04-07 15:00:00 6.5 12 Oeste 23 Oeste 0.2 -- -- 76
2018-04-07 14:00:00 5.9 13 Oeste 23 Oeste 0.2 -- -- 76
2018-04-07 13:00:00 5.1 18 Oeste 30 Oeste 0.2 -- -- 81
2018-04-07 12:00:00 4.6 14 Oeste 25 Oeste 0.4 -- -- 89
2018-04-07 11:00:00 4 13 Oeste 25 Oeste 0.2 -- -- 92
2018-04-07 10:00:00 3.9 15 Oeste 22 Oeste 0.2 -- -- 91
2018-04-07 09:00:00 4.5 5 Oeste 10 Noroeste 0.4 -- -- 91
2018-04-07 08:00:00 4.4 0 Calma 6 Este 0 -- -- 91
2018-04-07 07:00:00 4.4 0 Calma 5 Sur 0 -- -- 91
2018-04-07 06:00:00 4.4 3 Este 12 Oeste 0.4 -- -- 90
2018-04-07 05:00:00 4.6 7 Oeste 20 Oeste 0 -- -- 88
2018-04-07 04:00:00 5 8 Oeste 21 Oeste 0.2 -- -- 86
2018-04-07 03:00:00 5.8 19 Sudoeste 39 Oeste 0 -- -- 83
2018-04-07 02:00:00 6.6 22 Oeste 36 Oeste 0 -- -- 80
2018-04-07 01:00:00 7.8 15 Sudoeste 37 Oeste 0 -- -- 79
2018-04-07 00:00:00 6.9 27 Oeste 42 Oeste 0 -- -- 85
2018-04-06 23:00:00 8.4 22 Oeste 34 Oeste 0 -- -- 86
2018-04-06 22:00:00 10.8 13 Sudoeste 44 Sur 0 -- -- 72
2018-04-06 21:00:00 12.3 32 Sudeste 56 Sudeste 0 -- -- 67
2018-04-06 20:00:00 12.9 29 Sudeste 49 Sudeste 0 -- -- 66
2018-04-06 19:00:00 14 28 Sudeste 55 Sudeste 0 -- -- 58
2018-04-06 18:00:00 14 38 Sudeste 61 Sudeste 0 -- -- 55
2018-04-06 17:00:00 14.6 39 Sudeste 64 Sudeste 0 -- -- 55
2018-04-06 16:00:00 14.7 28 Sudeste 51 Este 0 -- -- 53
2018-04-06 15:00:00 14.4 25 Sudeste 49 Sudeste 0 -- -- 55
2018-04-06 14:00:00 14.6 28 Sudeste 50 Sur 0 -- -- 52
2018-04-06 13:00:00 14.8 27 Sur 48 Sur 0 -- -- 51
2018-04-06 12:00:00 14.6 26 Sur 46 Sur 0 -- -- 50
2018-04-06 11:00:00 13.5 16 Sur 36 Este 0 -- -- 51
2018-04-06 10:00:00 10.5 18 Nordeste 32 Este 0 -- -- 61
2018-04-06 09:00:00 9.6 16 Este 27 Este 0 -- -- 64
2018-04-06 08:00:00 7.3 2 Este 19 Nordeste 0 -- -- 70
2018-04-06 07:00:00 7.9 7 Nordeste 16 Nordeste 0 -- -- 69
2018-04-06 06:00:00 7.8 3 Nordeste 13 Norte 0 -- -- 69
2018-04-06 05:00:00 9 8 Norte 23 Nordeste 0 -- -- 65
2018-04-06 04:00:00 10.4 12 Nordeste 49 Nordeste 0 -- -- 57
2018-04-06 03:00:00 10.2 9 Nordeste 26 Este 0 -- -- 55
2018-04-06 02:00:00 9.9 16 Este 38 Sur 0 -- -- 59
2018-04-06 01:00:00 10.1 15 Nordeste 41 Nordeste 0 -- -- 60
2018-04-06 00:00:00 10.5 13 Nordeste 49 Nordeste 0 -- -- 61
2018-04-05 23:00:00 10.6 13 Nordeste 42 Sudeste 0 -- -- 62
2018-04-05 22:00:00 10.8 9 Sur 42 Sur 0 -- -- 58
2018-04-05 21:00:00 11.4 17 Sur 47 Sur 0 -- -- 41
2018-04-05 20:00:00 12.3 22 Sur 47 Sudeste 0 -- -- 44
2018-04-05 19:00:00 14.4 15 Sudeste 37 Sur 0 -- -- 43
2018-04-05 18:00:00 15.5 23 Sur 43 Sur 0 -- -- 43
2018-04-05 17:00:00 16.4 26 Sur 37 Sur 0 -- -- 38
2018-04-05 16:00:00 16.2 12 Nordeste 26 Sudeste 0 -- -- 41
2018-04-05 15:00:00 15.3 13 Este 34 Este 0 -- -- 40
2018-04-05 14:00:00 13.2 5 Nordeste 12 Nordeste 0 -- -- 51
2018-04-05 13:00:00 11.3 3 Noroeste 9 Noroeste 0 -- -- 54
2018-04-05 12:00:00 7.9 4 Noroeste 8 Noroeste 0 -- -- 72
2018-04-05 11:00:00 6 3 Nordeste 6 Nordeste 0 -- -- 79
2018-04-05 10:00:00 3.7 2 Este 6 Nordeste 0 -- -- 82
2018-04-05 09:00:00 2 0 Calma 8 Sudoeste 0 -- -- 84
2018-04-05 08:00:00 0.2 3 Sur 10 Sudoeste 0 -- -- 90
2018-04-05 07:00:00 0.8 2 Sudoeste 9 Sur 0 -- -- 89
2018-04-05 06:00:00 1.1 0 Calma 5 Sur 0 -- -- 87
2018-04-05 05:00:00 1.2 0 Calma 6 Oeste 0 -- -- 83
2018-04-05 04:00:00 1.9 0 Calma 10 Sudoeste 0 -- -- 82
2018-04-05 03:00:00 3 3 Sudoeste 12 Sur 0 -- -- 80
2018-04-05 02:00:00 3.8 6 Sur 17 Oeste 0 -- -- 79
2018-04-05 01:00:00 4.7 16 Oeste 41 Oeste 0 -- -- 84
2018-04-05 00:00:00 5.1 18 Oeste 31 Oeste 0 -- -- 80
2018-04-04 23:00:00 6.2 22 Oeste 34 Oeste 0 -- -- 80
2018-04-04 22:00:00 7.2 12 Oeste 37 Oeste 0 -- -- 84
2018-04-04 21:00:00 7.5 21 Oeste 42 Oeste 0 -- -- 79
2018-04-04 20:00:00 8.1 22 Oeste 44 Oeste 0.2 -- -- 75
2018-04-04 19:00:00 7.9 21 Oeste 42 Sudoeste 0.4 -- -- 80
2018-04-04 18:00:00 9.2 26 Sudoeste 55 Oeste 0.2 -- -- 75
2018-04-04 17:00:00 8.8 30 Sudoeste 69 Sudoeste 0.2 -- -- 75
2018-04-04 16:00:00 10.4 23 Sudoeste 46 Sudoeste 0 -- -- 67
2018-04-04 15:00:00 10.5 25 Sudoeste 45 Sudoeste 0 -- -- 64
2018-04-04 14:00:00 9.5 21 Sudoeste 42 Oeste 0 -- -- 70
2018-04-04 13:00:00 7.6 22 Oeste 47 Oeste 0.2 -- -- 78
2018-04-04 12:00:00 7.1 23 Sudoeste 45 Sudoeste 0.2 -- -- 80
2018-04-04 11:00:00 6.8 20 Sudoeste 54 Sudoeste 0 -- -- 78
2018-04-04 10:00:00 5.9 30 Sudoeste 64 Oeste 0 -- -- 72
2018-04-04 09:00:00 5.8 25 Sudoeste 58 Sudoeste 0 -- -- 71
2018-04-04 08:00:00 5.1 27 Sudoeste 61 Sudoeste 0 -- -- 67
2018-04-04 07:00:00 5.3 8 Oeste 40 Sudoeste 0 -- -- 68
2018-04-04 06:00:00 5.6 26 Sudoeste 64 Sudoeste 0 -- -- 61
2018-04-04 05:00:00 5.5 41 Sudoeste 71 Sudoeste 0 -- -- 68
2018-04-04 04:00:00 5.4 45 Sudoeste 74 Oeste 0 -- -- 66
2018-04-04 03:00:00 5.1 32 Sudoeste 65 Sudoeste 0 -- -- 72
2018-04-04 02:00:00 5.3 36 Sudoeste 69 Sudoeste 0 -- -- 67
2018-04-04 01:00:00 5.4 42 Sudoeste 74 Sudoeste 0 -- -- 66
2018-04-04 00:00:00 5.5 43 Sudoeste 66 Sudoeste 0.2 -- -- 67
2018-04-03 23:00:00 5.5 23 Sudoeste 42 Sudoeste 2.2 -- -- 79
2018-04-03 22:00:00 5.7 21 Oeste 46 Sudoeste 0.6 -- -- 83
2018-04-03 21:00:00 5.5 33 Oeste 50 Sudoeste 0 -- -- 80
2018-04-03 20:00:00 8.3 33 Sudoeste 58 Sudoeste 0 -- -- 60
2018-04-03 19:00:00 8.6 26 Sur 56 Sur 0 -- -- 67
2018-04-03 18:00:00 9.6 30 Sur 55 Sudoeste 0 -- -- 62
2018-04-03 17:00:00 8.3 36 Sudoeste 64 Sudoeste 1 -- -- 74
2018-04-03 16:00:00 10.3 34 Sur 57 Sur 0 -- -- 61
2018-04-03 15:00:00 10.3 21 Sur 57 Sur 0 -- -- 64
2018-04-03 14:00:00 11.3 32 Sudoeste 64 Sudoeste 0 -- -- 50
2018-04-03 13:00:00 10.8 33 Sur 61 Sudoeste 0 -- -- 56
2018-04-03 12:00:00 10.5 33 Sudoeste 59 Sudoeste 0 -- -- 57
2018-04-03 11:00:00 10.1 28 Sudoeste 54 Sudoeste 0 -- -- 59
2018-04-03 10:00:00 8.7 36 Sudoeste 59 Sudoeste 0 -- -- 62
2018-04-03 09:00:00 7.1 20 Sudoeste 43 Sudoeste 0 -- -- 69
2018-04-03 08:00:00 7.3 15 Sudoeste 34 Sudoeste 0 -- -- 70
2018-04-03 07:00:00 6.9 8 Sudoeste 35 Sudoeste 0 -- -- 71
2018-04-03 06:00:00 7.6 22 Sudoeste 37 Sudoeste 0 -- -- 69
2018-04-03 05:00:00 7.5 13 Oeste 34 Sur 0 -- -- 70
2018-04-03 04:00:00 6.6 0 Calma 11 Nordeste 0 -- -- 83
2018-04-03 03:00:00 7.9 10 Sur 33 Sudoeste 0 -- -- 70
2018-04-03 02:00:00 8.4 14 Sudoeste 32 Sudoeste 0 -- -- 64
2018-04-03 01:00:00 7.5 6 Este 18 Sur 0 -- -- 79
2018-04-03 00:00:00 8.6 13 Sudoeste 35 Sudoeste 0.2 -- -- 71
2018-04-02 23:00:00 9 8 Sudoeste 34 Sudoeste 0 -- -- 71
2018-04-02 22:00:00 9.1 8 Sur 32 Sudoeste 0 -- -- 68
2018-04-02 21:00:00 9.2 19 Sudoeste 46 Sur 1.4 -- -- 71
2018-04-02 20:00:00 9.1 23 Sudoeste 38 Sudoeste 1.4 -- -- 73
2018-04-02 19:00:00 11.5 15 Sur 35 Sur 0 -- -- 64
2018-04-02 18:00:00 12.6 23 Sur 41 Sudoeste 0 -- -- 57
2018-04-02 17:00:00 14 22 Sur 52 Sur 0 -- -- 49
2018-04-02 16:00:00 14.3 32 Sur 57 Sur 0 -- -- 42
2018-04-02 15:00:00 14.5 34 Sur 57 Sur 0 -- -- 42
2018-04-02 14:00:00 14.1 34 Sur 59 Sur 0 -- -- 46
2018-04-02 13:00:00 14.1 28 Sur 62 Sur 0 -- -- 45
2018-04-02 12:00:00 13 35 Sur 59 Sur 0 -- -- 50
2018-04-02 11:00:00 12.5 27 Sur 47 Sur 0 -- -- 53
2018-04-02 10:00:00 10 18 Noroeste 25 Noroeste 0 -- -- 64
2018-04-02 09:00:00 7.6 6 Noroeste 29 Sudoeste 0 -- -- 68
2018-04-02 08:00:00 7.6 10 Sudoeste 40 Sudeste 0 -- -- 65
2018-04-02 07:00:00 8.6 12 Sudoeste 27 Sudoeste 0 -- -- 61
2018-04-02 06:00:00 9.1 11 Oeste 27 Sur 0 -- -- 58
2018-04-02 05:00:00 9.8 12 Sudoeste 33 Sudoeste 0 -- -- 57
2018-04-02 04:00:00 9.9 16 Sudoeste 37 Nordeste 0 -- -- 58
2018-04-02 03:00:00 9.2 12 Nordeste 28 Nordeste 0 -- -- 60
2018-04-02 02:00:00 10.2 10 Nordeste 23 Norte 0 -- -- 56
2018-04-02 01:00:00 10.2 15 Nordeste 32 Este 0 -- -- 55
2018-04-02 00:00:00 10.2 17 Nordeste 26 Este 0 -- -- 56
2018-04-01 23:00:00 10.1 9 Este 28 Sudeste 0 -- -- 58
2018-04-01 22:00:00 10.5 15 Este 31 Este 0 -- -- 58
2018-04-01 21:00:00 10.7 11 Este 30 Nordeste 0 -- -- 60
2018-04-01 20:00:00 11.5 7 Sur 36 Sudeste 0 -- -- 57
2018-04-01 19:00:00 12.3 14 Sudeste 38 Sudeste 0 -- -- 52
2018-04-01 18:00:00 13 13 Sudeste 35 Sudeste 0 -- -- 51
2018-04-01 17:00:00 13.2 12 Este 36 Sudeste 0 -- -- 53
2018-04-01 16:00:00 14 16 Sudeste 49 Sudeste 0 -- -- 48
2018-04-01 15:00:00 14.2 24 Sudeste 40 Sudeste 0 -- -- 48
2018-04-01 14:00:00 14 22 Sur 42 Sur 0 -- -- 52
2018-04-01 13:00:00 13.4 22 Sur 49 Sur 0 -- -- 54
2018-04-01 12:00:00 11.4 17 Sur 41 Sudoeste 0 -- -- 60
2018-04-01 11:00:00 7.3 8 Nordeste 12 Norte 0 -- -- 73
2018-04-01 10:00:00 5.4 0 Calma 4 Norte 0 -- -- 75
2018-04-01 09:00:00 2.6 2 Oeste 8 Sur 0 -- -- 82
2018-04-01 08:00:00 0.9 2 Sur 5 Sur 0 -- -- 86
2018-04-01 07:00:00 2 6 Sur 9 Sur 0 -- -- 81
2018-04-01 06:00:00 2.3 4 Sudoeste 9 Oeste 0 -- -- 80
2018-04-01 05:00:00 2.3 4 Oeste 6 Oeste 0 -- -- 81
2018-04-01 04:00:00 2.8 0 Calma 8 Sur 0 -- -- 82
2018-04-01 03:00:00 3.3 2 Este 9 Sur 0 -- -- 76
2018-04-01 02:00:00 3.1 3 Sur 10 Sur 0 -- -- 75
2018-04-01 01:00:00 3.1 2 Nordeste 10 Este 0 -- -- 74
2018-04-01 00:00:00 2.9 2 Sudeste 8 Sur 0 -- -- 74
2018-03-31 23:00:00 3.6 2 Sur 15 Oeste 0 -- -- 71
2018-03-31 22:00:00 4.7 10 Sudoeste 17 Oeste 0 -- -- 66
2018-03-31 21:00:00 5 8 Oeste 23 Oeste 0 -- -- 63
2018-03-31 20:00:00 6.9 19 Oeste 33 Noroeste 0 -- -- 56
2018-03-31 19:00:00 8 25 Noroeste 36 Oeste 0 -- -- 49
2018-03-31 18:00:00 8.4 25 Oeste 41 Oeste 0 -- -- 49
2018-03-31 17:00:00 8.1 26 Oeste 42 Oeste 0 -- -- 50
2018-03-31 16:00:00 7.7 26 Oeste 45 Oeste 0 -- -- 51
2018-03-31 15:00:00 7 21 Oeste 42 Oeste 0 -- -- 60
2018-03-31 14:00:00 5.7 20 Oeste 39 Oeste 0 -- -- 66
2018-03-31 13:00:00 4.9 21 Oeste 38 Oeste 0 -- -- 70
2018-03-31 12:00:00 3 23 Oeste 36 Oeste 0 -- -- 75
2018-03-31 11:00:00 1.7 25 Oeste 44 Oeste 0 -- -- 86
2018-03-31 10:00:00 1.1 28 Oeste 45 Oeste 0.2 -- -- 85
2018-03-31 09:00:00 0.8 29 Oeste 51 Oeste 0 -- -- 84
2018-03-31 08:00:00 0.7 29 Oeste 46 Oeste 0 -- -- 86
2018-03-31 07:00:00 0.5 26 Oeste 50 Oeste 0 -- -- 88
2018-03-31 06:00:00 0.4 26 Oeste 54 Sudoeste 0 -- -- 89
2018-03-31 05:00:00 0.4 32 Oeste 62 Oeste 0 -- -- 84
2018-03-31 04:00:00 0.5 33 Oeste 60 Sudoeste 0 -- -- 81
2018-03-31 03:00:00 0.8 35 Oeste 69 Sudoeste 0 -- -- 78
2018-03-31 02:00:00 1 41 Oeste 76 Sudoeste 0 -- -- 78
2018-03-31 01:00:00 0.6 34 Oeste 57 Sudoeste 0 -- -- 89
2018-03-31 00:00:00 1.3 39 Sudoeste 59 Oeste 0 -- -- 79
2018-03-30 23:00:00 1.2 31 Oeste 78 Sudoeste 0.8 -- -- 84
2018-03-30 22:00:00 1.5 23 Sudoeste 50 Sudoeste 0.8 -- -- 87
2018-03-30 21:00:00 2.6 40 Sudoeste 61 Sudoeste 0.6 -- -- 76
2018-03-30 20:00:00 2.2 23 Sudoeste 58 Sudoeste 0 -- -- 78
2018-03-30 19:00:00 4.4 31 Sudoeste 55 Sur 0 -- -- 59
2018-03-30 18:00:00 5.7 33 Sudoeste 70 Sur 0 -- -- 51
2018-03-30 17:00:00 6.2 37 Sudoeste 59 Sudoeste 0 -- -- 52
2018-03-30 16:00:00 5.9 30 Sudoeste 59 Sudoeste 0 -- -- 60
2018-03-30 15:00:00 6.4 22 Oeste 33 Oeste 0 -- -- 61
2018-03-30 14:00:00 4.9 19 Sudoeste 40 Oeste 0 -- -- 57
2018-03-30 13:00:00 3.6 24 Oeste 43 Oeste 0.8 -- -- 62
2018-03-30 12:00:00 2.3 30 Oeste 45 Oeste 0.6 -- -- 70
2018-03-30 11:00:00 1.1 28 Oeste 46 Oeste 0.2 -- -- 70
2018-03-30 10:00:00 0.2 32 Oeste 52 Oeste 0 -- -- 77
2018-03-30 09:00:00 -0.1 25 Oeste 38 Oeste 0 -- -- 79
2018-03-30 08:00:00 -0.2 23 Oeste 34 Oeste 0 -- -- 88
2018-03-30 07:00:00 0 18 Oeste 36 Oeste 0 -- -- 90
2018-03-30 06:00:00 0.2 21 Oeste 47 Oeste 0 -- -- 93
2018-03-30 05:00:00 0.4 29 Oeste 48 Sudoeste 1.6 -- -- 92
2018-03-30 04:00:00 2.3 27 Sudoeste 56 Sudoeste 1.6 -- -- 86
2018-03-30 03:00:00 4.9 33 Sudoeste 64 Sudoeste 0 -- -- 67
2018-03-30 02:00:00 5.3 33 Sudoeste 56 Sudoeste 0 -- -- 62
2018-03-30 01:00:00 5.3 23 Sudoeste 41 Sudoeste 0 -- -- 64
2018-03-30 00:00:00 5.4 30 Sudoeste 54 Sur 0 -- -- 61
2018-03-29 23:00:00 5.5 22 Sur 44 Sudoeste 0 -- -- 56
2018-03-29 22:00:00 5.6 25 Sudoeste 47 Sudoeste 0 -- -- 55
2018-03-29 21:00:00 5.9 20 Sudoeste 44 Oeste 0 -- -- 52
2018-03-29 20:00:00 7.1 22 Sudoeste 40 Oeste 0 -- -- 51
2018-03-29 19:00:00 8.5 23 Oeste 44 Oeste 0 -- -- 51
2018-03-29 18:00:00 10.1 24 Oeste 37 Oeste 0 -- -- 39
2018-03-29 17:00:00 10.3 21 Oeste 40 Oeste 0 -- -- 44
2018-03-29 16:00:00 9.8 22 Oeste 36 Oeste 0 -- -- 51
2018-03-29 15:00:00 9.1 20 Oeste 37 Oeste 0 -- -- 49
2018-03-29 14:00:00 8.4 23 Oeste 37 Noroeste 0 -- -- 45
2018-03-29 13:00:00 5.8 27 Noroeste 44 Oeste 0 -- -- 67
2018-03-29 12:00:00 5.1 34 Oeste 44 Oeste 0 -- -- 73
2018-03-29 11:00:00 4.5 28 Oeste 39 Noroeste 0 -- -- 75
2018-03-29 10:00:00 4.2 25 Oeste 33 Noroeste 0 -- -- 79
2018-03-29 09:00:00 2.9 21 Noroeste 30 Oeste 0 -- -- 87
2018-03-29 08:00:00 2.6 8 Sudoeste 25 Noroeste 0 -- -- 88
2018-03-29 07:00:00 4.2 14 Oeste 33 Oeste 0 -- -- 82
2018-03-29 06:00:00 4.2 25 Oeste 36 Oeste 0 -- -- 87
2018-03-29 05:00:00 5.4 14 Oeste 26 Oeste 0 -- -- 84
2018-03-29 04:00:00 5.9 19 Oeste 28 Oeste 0 -- -- 83
2018-03-29 03:00:00 6.6 15 Oeste 22 Oeste 0 -- -- 83
2018-03-29 02:00:00 7.2 9 Oeste 23 Oeste 0 -- -- 81
2018-03-29 01:00:00 7.4 14 Oeste 24 Oeste 0 -- -- 84
2018-03-29 00:00:00 7.8 13 Oeste 25 Oeste 0 -- -- 81
2018-03-28 23:00:00 8.1 14 Oeste 23 Oeste 0 -- -- 80
2018-03-28 22:00:00 8.5 9 Oeste 21 Oeste 0 -- -- 80
2018-03-28 21:00:00 9.3 9 Oeste 32 Oeste 0 -- -- 76
2018-03-28 20:00:00 10.6 19 Noroeste 36 Noroeste 0 -- -- 70
2018-03-28 19:00:00 13.8 20 Oeste 32 Oeste 0 -- -- 50
2018-03-28 18:00:00 14.9 25 Oeste 39 Oeste 0 -- -- 48
2018-03-28 17:00:00 16 22 Oeste 49 Oeste 0 -- -- 42
2018-03-28 16:00:00 16.6 30 Oeste 49 Oeste 0 -- -- 31
2018-03-28 15:00:00 16.7 17 Oeste 40 Oeste 0 -- -- 29
2018-03-28 14:00:00 15.9 22 Oeste 37 Oeste 0 -- -- 32
2018-03-28 13:00:00 15.2 17 Oeste 32 Oeste 0 -- -- 33
2018-03-28 12:00:00 13.8 24 Oeste 36 Oeste 0 -- -- 29
2018-03-28 11:00:00 12.6 22 Oeste 38 Oeste 0 -- -- 32
2018-03-28 10:00:00 10.8 12 Noroeste 23 Noroeste 0 -- -- 45
2018-03-28 09:00:00 8.4 8 Oeste 18 Oeste 0 -- -- 50
2018-03-28 08:00:00 6.2 13 Oeste 18 Oeste 0 -- -- 50
2018-03-28 07:00:00 6.1 2 Sudeste 8 Este 0 -- -- 54
2018-03-28 06:00:00 6.6 2 Este 7 Este 0 -- -- 54
2018-03-28 05:00:00 6.9 3 Sudeste 11 Sur 0 -- -- 54
2018-03-28 04:00:00 6.7 4 Sur 14 Oeste 0 -- -- 61
2018-03-28 03:00:00 7.6 10 Oeste 17 Oeste 0 -- -- 64
2018-03-28 02:00:00 8.3 13 Oeste 21 Oeste 0 -- -- 62
2018-03-28 01:00:00 9.5 19 Oeste 30 Oeste 0 -- -- 63
2018-03-28 00:00:00 9 13 Oeste 24 Oeste 0 -- -- 72
2018-03-27 23:00:00 11.2 21 Oeste 33 Oeste 0 -- -- 62
2018-03-27 22:00:00 10.4 14 Oeste 25 Oeste 0 -- -- 73
2018-03-27 21:00:00 11.1 11 Oeste 23 Oeste 0 -- -- 67
2018-03-27 20:00:00 13.6 13 Oeste 30 Oeste 0 -- -- 59
2018-03-27 19:00:00 14.3 14 Noroeste 32 Oeste 0 -- -- 55
2018-03-27 18:00:00 14.8 11 Oeste 31 Noroeste 0 -- -- 51
2018-03-27 17:00:00 14.4 26 Noroeste 39 Noroeste 0 -- -- 50
2018-03-27 16:00:00 14.4 23 Oeste 39 Oeste 0 -- -- 49
2018-03-27 15:00:00 13.8 28 Oeste 37 Oeste 0 -- -- 49
2018-03-27 14:00:00 13.2 24 Noroeste 38 Noroeste 0 -- -- 53
2018-03-27 13:00:00 12.8 23 Noroeste 34 Noroeste 0 -- -- 52
2018-03-27 12:00:00 12.2 20 Oeste 32 Oeste 0 -- -- 55
2018-03-27 11:00:00 10.7 19 Noroeste 31 Noroeste 0 -- -- 55
2018-03-27 10:00:00 9.7 22 Oeste 32 Oeste 0 -- -- 51
2018-03-27 09:00:00 7.8 23 Oeste 31 Oeste 0 -- -- 55
2018-03-27 08:00:00 7 20 Oeste 37 Oeste 0 -- -- 64
2018-03-27 07:00:00 6.3 19 Oeste 28 Oeste 0 -- -- 71
2018-03-27 06:00:00 6.2 19 Oeste 39 Oeste 0 -- -- 82
2018-03-27 05:00:00 5.8 23 Noroeste 35 Oeste 0 -- -- 86
2018-03-27 04:00:00 6 20 Oeste 37 Oeste -- -- -- 83
2018-03-27 03:00:00 6.9 17 Oeste 33 Oeste 0 -- -- 76
2018-03-27 02:00:00 7.5 13 Oeste 45 Oeste 0 -- -- 70
2018-03-27 01:00:00 6.8 8 Noroeste 42 Sudoeste 0 -- -- 67
2018-03-27 00:00:00 7.7 27 Sudoeste 42 Sudoeste 0 -- -- 68
2018-03-26 23:00:00 7.1 15 Oeste 32 Oeste 0 -- -- 65
2018-03-26 22:00:00 6.6 16 Sudoeste 33 Sudoeste 0 -- -- 58
2018-03-26 21:00:00 6.4 14 Oeste 20 Oeste 0 -- -- 58
2018-03-26 20:00:00 7.7 14 Oeste 32 Oeste 0 -- -- 57
2018-03-26 19:00:00 8.3 19 Noroeste 34 Oeste 0 -- -- 56
2018-03-26 18:00:00 8.5 24 Noroeste 39 Noroeste 0 -- -- 55
2018-03-26 17:00:00 8.8 25 Noroeste 33 Noroeste 0 -- -- 50
2018-03-26 16:00:00 8.9 12 Noroeste 23 Oeste 0 -- -- 48
2018-03-26 15:00:00 8.4 16 Noroeste 26 Noroeste 0 -- -- 49
2018-03-26 14:00:00 8.2 14 Oeste 27 Noroeste 0 -- -- 57
2018-03-26 13:00:00 6.9 6 Norte 13 Norte 0 -- -- 61
2018-03-26 12:00:00 5.9 4 Nordeste 9 Este 0 -- -- 61
2018-03-26 11:00:00 4.5 3 Norte 6 Noroeste 0 -- -- 67
2018-03-26 10:00:00 3.3 0 Calma 5 Este 0 -- -- 70
2018-03-26 09:00:00 0.3 3 Sur 12 Oeste 0 -- -- 79
2018-03-26 08:00:00 0 9 Oeste 12 Oeste 0 -- -- 79
2018-03-26 07:00:00 0.6 5 Sur 10 Sur 0 -- -- 76
2018-03-26 06:00:00 0.5 4 Sudoeste 15 Oeste 0 -- -- 74
2018-03-26 05:00:00 0.9 6 Oeste 23 Noroeste 0 -- -- 71
2018-03-26 04:00:00 1.5 19 Oeste 33 Oeste 0 -- -- 69
2018-03-26 03:00:00 2.2 22 Oeste 37 Oeste 0 -- -- 65
2018-03-26 02:00:00 2.5 22 Oeste 32 Oeste 0 -- -- 65
2018-03-26 01:00:00 3 15 Oeste 28 Noroeste 0.2 -- -- 61
2018-03-26 00:00:00 4.2 9 Noroeste 18 Oeste 0 -- -- 60
2018-03-25 23:00:00 4.3 8 Oeste 17 Oeste 0 -- -- 69
2018-03-25 22:00:00 4.1 11 Oeste 19 Oeste 0 -- -- 75
2018-03-25 21:00:00 4 14 Oeste 22 Oeste 0 -- -- 77
2018-03-25 20:00:00 3.5 10 Oeste 25 Oeste 0.2 -- -- 83
2018-03-25 19:00:00 4.1 21 Oeste 39 Noroeste 0 -- -- 81
2018-03-25 18:00:00 5.6 25 Noroeste 37 Noroeste 0 -- -- 63
2018-03-25 17:00:00 5.5 25 Noroeste 37 Noroeste 0 -- -- 67
2018-03-25 16:00:00 5.4 16 Noroeste 35 Noroeste 0 -- -- 66
2018-03-25 15:00:00 5.4 19 Noroeste 30 Oeste 0 -- -- 67
2018-03-25 14:00:00 4.7 18 Noroeste 29 Noroeste 0 -- -- 72
2018-03-25 13:00:00 3.5 21 Noroeste 32 Noroeste 0 -- -- 74
2018-03-25 12:00:00 3.1 20 Oeste 31 Oeste 0 -- -- 78
2018-03-25 11:00:00 2.1 18 Noroeste 24 Oeste 0.4 -- -- 90
2018-03-25 10:00:00 0.7 6 Oeste 12 Oeste 0 -- -- 93
2018-03-25 09:00:00 0.5 10 Noroeste 14 Noroeste 0 -- -- 91
2018-03-25 08:00:00 0.4 11 Oeste 22 Oeste 0 -- -- 91
2018-03-25 07:00:00 -0.3 4 Oeste 7 Oeste 0 -- -- 92
2018-03-25 06:00:00 0.2 4 Noroeste 18 Oeste 0 -- -- 89
2018-03-25 05:00:00 -0.1 8 Oeste 21 Oeste 0 -- -- 90
2018-03-25 03:00:00 0.4 24 Oeste 46 Oeste 0 -- -- 87
2018-03-25 01:00:00 0.8 28 Oeste 50 Oeste 0 -- -- 88
2018-03-25 00:00:00 1.6 31 Oeste 54 Oeste 0 -- -- 79
2018-03-24 23:00:00 1.9 28 Oeste 53 Oeste 0 -- -- 78
2018-03-24 22:00:00 2.6 35 Oeste 55 Oeste 0 -- -- 75
2018-03-24 21:00:00 3.1 38 Oeste 59 Oeste 0 -- -- 74
2018-03-24 20:00:00 3.3 31 Oeste 53 Oeste 0 -- -- 73
2018-03-24 19:00:00 3.7 30 Oeste 55 Oeste 0 -- -- 73
2018-03-24 18:00:00 4.4 35 Oeste 58 Oeste 0 -- -- 73
2018-03-24 17:00:00 4.7 40 Oeste 66 Oeste 0 -- -- 68
2018-03-24 16:00:00 4.4 40 Oeste 74 Oeste 0 -- -- 70
2018-03-24 15:00:00 4.1 45 Oeste 69 Oeste 0 -- -- 72
2018-03-24 14:00:00 4 44 Oeste 69 Oeste 0 -- -- 75
2018-03-24 13:00:00 3.6 47 Oeste 70 Oeste 0 -- -- 73
2018-03-24 12:00:00 2 40 Oeste 67 Oeste 0 -- -- 77
2018-03-24 11:00:00 1.2 42 Oeste 72 Oeste 0 -- -- 78
2018-03-24 10:00:00 0.4 40 Oeste 64 Oeste 0 -- -- 81
2018-03-24 09:00:00 0.1 37 Oeste 64 Oeste 0 -- -- 81
2018-03-24 08:00:00 -0.2 41 Oeste 69 Oeste 0 -- -- 81
2018-03-24 07:00:00 -0.3 39 Oeste 59 Oeste 0 -- -- 78
2018-03-24 06:00:00 -0.5 44 Oeste 64 Oeste 0.2 -- -- 79
2018-03-24 05:00:00 -0.1 39 Oeste 57 Oeste 0 -- -- 81
2018-03-24 04:00:00 0.2 35 Oeste 63 Oeste 0 -- -- 83
2018-03-24 03:00:00 0.5 33 Oeste 61 Oeste 0 -- -- 82
2018-03-24 02:00:00 1 39 Oeste 62 Oeste 0 -- -- 84
2018-03-24 01:00:00 1.6 38 Oeste 64 Oeste 0.6 -- -- 83
2018-03-24 00:00:00 3.4 43 Oeste 81 Oeste 3 -- -- 87
2018-03-23 23:00:00 6.8 46 Sudoeste 97 Sudoeste 0.6 -- -- 78
2018-03-23 22:00:00 6.8 36 Sudoeste 67 Sudoeste 0.4 -- -- 79
2018-03-23 21:00:00 7.7 27 Sudoeste 78 Sudoeste 0.2 -- -- 71
2018-03-23 20:00:00 7.3 32 Sudoeste 54 Sudoeste 0 -- -- 77
2018-03-23 19:00:00 7.6 24 Sudoeste 56 Sudoeste 0 -- -- 80
2018-03-23 18:00:00 8.2 21 Sudoeste 48 Sudoeste 0 -- -- 82
2018-03-23 17:00:00 8.9 14 Sudoeste 41 Sudoeste 0 -- -- 80
2018-03-23 16:00:00 8.3 19 Sudoeste 47 Oeste 1.6 -- -- 82
2018-03-23 15:00:00 8.3 22 Oeste 39 Oeste 0.8 -- -- 88
2018-03-23 14:00:00 8.8 18 Oeste 35 Sudoeste 0.2 -- -- 87
2018-03-23 13:00:00 9.1 16 Oeste 45 Oeste 0 -- -- 86
2018-03-23 12:00:00 8.8 24 Oeste 51 Oeste 0 -- -- 82
2018-03-23 11:00:00 7.9 21 Oeste 40 Oeste 0.2 -- -- 86
2018-03-23 10:00:00 6.2 15 Noroeste 30 Oeste 0.6 -- -- 94
2018-03-23 09:00:00 5.3 19 Oeste 33 Sudoeste 0.6 -- -- 93
2018-03-23 08:00:00 5.5 24 Oeste 42 Oeste 0.2 -- -- 90
2018-03-23 07:00:00 3.3 17 Oeste 34 Oeste 0 -- -- 91
2018-03-23 06:00:00 4.1 22 Oeste 41 Oeste 0 -- -- 80
2018-03-23 05:00:00 6.2 22 Oeste 39 Oeste 0 -- -- 36
2018-03-23 04:00:00 4 12 Oeste 24 Oeste 0 -- -- 57
2018-03-23 03:00:00 3 17 Noroeste 28 Oeste 0 -- -- 63
2018-03-23 02:00:00 4.8 22 Oeste 37 Oeste 0 -- -- 55
2018-03-23 01:00:00 3.4 22 Oeste 30 Oeste 0 -- -- 59
2018-03-23 00:00:00 3 12 Oeste 25 Oeste 0 -- -- 62